Aérodrome :
LOGIN :

S'inscrire | Disclaimer

   EN    FR    IT 

 










Légende :    VFR   VFR Marginal   IFR   IFR Intensif   IFR Très Intensif
Visi : 
Plafond : 
>= 8 km
>= 3000ft
5 à 8 km
1000 à 3000 ft
1500m à 5 km
500 à 1000 ft
800 à 1500m
200 à 500 ft
< 800m
< 200 ft
Symboles :   Orages  Brouillard  Fortes neiges  Fortes précipitations  Vent > 20 kt
SIGMETs :   Divers  Orages  Givrage  Turbulence  Onde Orograph.  Cendres Volcan.






- Altitude de l'aérodrome : 3 ft
- Code IATA : LWR


EHLW - Leuuwarden Air Base

DERNIER METAR :
  • 260025Z AUTO 12001KT 9999 FEW270 SCT360 08/08 Q1035 BLU

METARs EXPIRÉS :
  • 260008Z AUTO 12001KT 9999 OVC330 08/07 Q1035 BLU
  • 252355Z AUTO VRB01KT 9999 NCD 08/08 Q1035 BLU
  • 252342Z AUTO 09003KT 050V130 2000 BR NCD 08/08 Q1035 YLO
  • 252325Z AUTO 09002KT 9999 NCD 08/08 Q1035 BLU
  • 252255Z AUTO 10004KT 050V130 9999 NCD 09/09 Q1035 BLU
  • 252225Z AUTO 05002KT 9999 FEW320 07/06 Q1035 BLU

TAF TAF EHLW
Valide du 25 à 21h jusqu'au 26 à 09h UTC


252012Z 2521/2609 VRB02KT CAVOK
BECMG 2522/2524 3500 BR MIFG
PROB40 2601/2605 1500 BCFG
BECMG 2604/2605 CAVOK



MET'MAP, la Météo Aéronautique d'un coup d'oeil ! - Copyright ORBIFLY Décembre 2007 - Disclaimer

ORBIFLY MET'MAP TEAM :

Programmation & Développement : Alexandra Zaïnal
Sur une idée originale de : Baudouin d'Aumeries
Assistance à la programmation : Marc-Olivier Méhu
Soutien technique & logistique : Manuel Goepfert

Contact : metmap@orbifly.com




SOURCES & CREDITS :

   NOAA